sensor_id;sensor_type;location;lat;lon;timestamp;temperature;humidity
9448;DHT22;4762;48.128;11.376;2023-06-22T00:01:47;20.90;99.90
9448;DHT22;4762;48.128;11.376;2023-06-22T00:04:04;20.80;99.90
9448;DHT22;4762;48.128;11.376;2023-06-22T00:06:22;20.80;99.90
9448;DHT22;4762;48.128;11.376;2023-06-22T00:08:39;20.80;99.90
9448;DHT22;4762;48.128;11.376;2023-06-22T00:10:57;20.80;99.90
9448;DHT22;4762;48.128;11.376;2023-06-22T00:13:14;20.90;99.90
9448;DHT22;4762;48.128;11.376;2023-06-22T00:15:31;20.80;99.90
9448;DHT22;4762;48.128;11.376;2023-06-22T00:17:49;20.80;99.90
9448;DHT22;4762;48.128;11.376;2023-06-22T00:20:06;20.80;99.90
9448;DHT22;4762;48.128;11.376;2023-06-22T00:22:23;20.70;99.90
9448;DHT22;4762;48.128;11.376;2023-06-22T00:24:40;20.70;99.90
9448;DHT22;4762;48.128;11.376;2023-06-22T00:26:57;20.70;99.90
9448;DHT22;4762;48.128;11.376;2023-06-22T00:29:14;20.70;99.90
9448;DHT22;4762;48.128;11.376;2023-06-22T00:31:31;20.70;99.90
9448;DHT22;4762;48.128;11.376;2023-06-22T00:33:50;20.70;99.90
9448;DHT22;4762;48.128;11.376;2023-06-22T00:36:07;20.60;99.90
9448;DHT22;4762;48.128;11.376;2023-06-22T00:38:25;20.60;99.90
9448;DHT22;4762;48.128;11.376;2023-06-22T00:40:42;20.60;99.90
9448;DHT22;4762;48.128;11.376;2023-06-22T00:42:59;20.50;99.90
9448;DHT22;4762;48.128;11.376;2023-06-22T00:45:16;20.50;99.90
9448;DHT22;4762;48.128;11.376;2023-06-22T00:47:34;20.50;99.90
9448;DHT22;4762;48.128;11.376;2023-06-22T00:49:51;20.40;99.90
9448;DHT22;4762;48.128;11.376;2023-06-22T00:52:09;20.40;99.90
9448;DHT22;4762;48.128;11.376;2023-06-22T00:54:26;20.40;99.90
9448;DHT22;4762;48.128;11.376;2023-06-22T00:56:43;20.40;99.90
9448;DHT22;4762;48.128;11.376;2023-06-22T00:59:00;20.30;99.90
9448;DHT22;4762;48.128;11.376;2023-06-22T01:01:17;20.30;99.90
9448;DHT22;4762;48.128;11.376;2023-06-22T01:03:34;20.30;99.90
9448;DHT22;4762;48.128;11.376;2023-06-22T01:05:51;20.30;99.90
9448;DHT22;4762;48.128;11.376;2023-06-22T01:10:55;20.20;99.90
9448;DHT22;4762;48.128;11.376;2023-06-22T01:13:24;20.20;99.90
9448;DHT22;4762;48.128;11.376;2023-06-22T01:15:44;20.10;99.90
9448;DHT22;4762;48.128;11.376;2023-06-22T01:17:58;20.10;99.90
9448;DHT22;4762;48.128;11.376;2023-06-22T01:20:16;20.10;99.90
9448;DHT22;4762;48.128;11.376;2023-06-22T01:22:33;20.00;99.90
9448;DHT22;4762;48.128;11.376;2023-06-22T01:24:57;20.10;99.90
9448;DHT22;4762;48.128;11.376;2023-06-22T01:29:50;20.00;99.90
9448;DHT22;4762;48.128;11.376;2023-06-22T01:32:05;20.00;99.90
9448;DHT22;4762;48.128;11.376;2023-06-22T01:34:23;20.00;99.90
9448;DHT22;4762;48.128;11.376;2023-06-22T01:36:39;19.90;99.90
9448;DHT22;4762;48.128;11.376;2023-06-22T01:38:57;19.90;99.90
9448;DHT22;4762;48.128;11.376;2023-06-22T01:41:14;19.90;99.90
9448;DHT22;4762;48.128;11.376;2023-06-22T01:43:31;19.90;99.90
9448;DHT22;4762;48.128;11.376;2023-06-22T01:45:48;19.80;99.90
9448;DHT22;4762;48.128;11.376;2023-06-22T01:48:05;19.80;99.90
9448;DHT22;4762;48.128;11.376;2023-06-22T01:50:22;19.80;99.90
9448;DHT22;4762;48.128;11.376;2023-06-22T01:52:39;19.80;99.90
9448;DHT22;4762;48.128;11.376;2023-06-22T01:54:56;19.70;99.90
9448;DHT22;4762;48.128;11.376;2023-06-22T01:57:14;19.70;99.90
9448;DHT22;4762;48.128;11.376;2023-06-22T01:59:32;19.60;99.90
9448;DHT22;4762;48.128;11.376;2023-06-22T02:01:53;19.60;99.90
9448;DHT22;4762;48.128;11.376;2023-06-22T02:04:11;19.60;99.90
9448;DHT22;4762;48.128;11.376;2023-06-22T02:06:27;19.60;99.90
9448;DHT22;4762;48.128;11.376;2023-06-22T02:08:47;19.60;99.90
9448;DHT22;4762;48.128;11.376;2023-06-22T02:11:04;19.50;99.90
9448;DHT22;4762;48.128;11.376;2023-06-22T02:13:21;19.50;99.90
9448;DHT22;4762;48.128;11.376;2023-06-22T02:15:38;19.40;99.90
9448;DHT22;4762;48.128;11.376;2023-06-22T02:17:55;19.40;99.90
9448;DHT22;4762;48.128;11.376;2023-06-22T02:20:13;19.40;99.90
9448;DHT22;4762;48.128;11.376;2023-06-22T02:22:30;19.40;99.90
9448;DHT22;4762;48.128;11.376;2023-06-22T02:24:47;19.40;99.90
9448;DHT22;4762;48.128;11.376;2023-06-22T02:27:05;19.40;99.90
9448;DHT22;4762;48.128;11.376;2023-06-22T02:29:22;19.30;99.90
9448;DHT22;4762;48.128;11.376;2023-06-22T02:31:39;19.30;99.90
9448;DHT22;4762;48.128;11.376;2023-06-22T02:33:58;19.30;99.90
9448;DHT22;4762;48.128;11.376;2023-06-22T02:36:14;19.30;99.90
9448;DHT22;4762;48.128;11.376;2023-06-22T02:38:31;19.30;99.90
9448;DHT22;4762;48.128;11.376;2023-06-22T02:40:49;19.20;99.90
9448;DHT22;4762;48.128;11.376;2023-06-22T02:43:06;19.10;99.90
9448;DHT22;4762;48.128;11.376;2023-06-22T02:45:23;19.10;99.90
9448;DHT22;4762;48.128;11.376;2023-06-22T02:47:41;19.10;99.90
9448;DHT22;4762;48.128;11.376;2023-06-22T02:49:58;19.10;99.90
9448;DHT22;4762;48.128;11.376;2023-06-22T02:52:15;19.00;99.90
9448;DHT22;4762;48.128;11.376;2023-06-22T02:54:32;19.00;99.90
9448;DHT22;4762;48.128;11.376;2023-06-22T02:56:49;18.90;99.90
9448;DHT22;4762;48.128;11.376;2023-06-22T02:59:06;18.90;99.90
9448;DHT22;4762;48.128;11.376;2023-06-22T03:01:23;18.90;99.90
9448;DHT22;4762;48.128;11.376;2023-06-22T03:03:40;18.90;99.90
9448;DHT22;4762;48.128;11.376;2023-06-22T03:05:57;18.90;99.90
9448;DHT22;4762;48.128;11.376;2023-06-22T03:08:15;18.90;99.90
9448;DHT22;4762;48.128;11.376;2023-06-22T03:10:32;18.90;99.90
9448;DHT22;4762;48.128;11.376;2023-06-22T03:12:49;18.80;99.90
9448;DHT22;4762;48.128;11.376;2023-06-22T03:15:07;18.80;99.90
9448;DHT22;4762;48.128;11.376;2023-06-22T03:17:24;18.80;99.90
9448;DHT22;4762;48.128;11.376;2023-06-22T03:19:41;18.70;99.90
9448;DHT22;4762;48.128;11.376;2023-06-22T03:21:59;18.70;99.90
9448;DHT22;4762;48.128;11.376;2023-06-22T03:24:16;18.80;99.90
9448;DHT22;4762;48.128;11.376;2023-06-22T03:26:34;18.70;99.90
9448;DHT22;4762;48.128;11.376;2023-06-22T03:28:50;18.70;99.90
9448;DHT22;4762;48.128;11.376;2023-06-22T03:31:08;18.70;99.90
9448;DHT22;4762;48.128;11.376;2023-06-22T03:33:25;18.80;99.90
9448;DHT22;4762;48.128;11.376;2023-06-22T03:35:42;18.80;99.90
9448;DHT22;4762;48.128;11.376;2023-06-22T03:37:59;18.80;99.90
9448;DHT22;4762;48.128;11.376;2023-06-22T03:40:16;18.80;99.90
9448;DHT22;4762;48.128;11.376;2023-06-22T03:42:34;18.80;99.90
9448;DHT22;4762;48.128;11.376;2023-06-22T03:44:51;18.90;99.90
9448;DHT22;4762;48.128;11.376;2023-06-22T03:47:08;18.90;99.90
9448;DHT22;4762;48.128;11.376;2023-06-22T03:49:25;18.80;99.90
9448;DHT22;4762;48.128;11.376;2023-06-22T03:51:43;18.80;99.90
9448;DHT22;4762;48.128;11.376;2023-06-22T03:54:00;18.80;99.90
9448;DHT22;4762;48.128;11.376;2023-06-22T03:56:17;18.80;99.90
9448;DHT22;4762;48.128;11.376;2023-06-22T03:58:34;18.90;99.90
9448;DHT22;4762;48.128;11.376;2023-06-22T04:00:51;18.80;99.90
9448;DHT22;4762;48.128;11.376;2023-06-22T04:03:08;18.80;99.90
9448;DHT22;4762;48.128;11.376;2023-06-22T04:05:25;18.80;99.90
9448;DHT22;4762;48.128;11.376;2023-06-22T04:07:42;18.80;99.90
9448;DHT22;4762;48.128;11.376;2023-06-22T04:09:59;18.90;99.90
9448;DHT22;4762;48.128;11.376;2023-06-22T04:12:17;19.00;99.90
9448;DHT22;4762;48.128;11.376;2023-06-22T04:14:34;19.10;99.90
9448;DHT22;4762;48.128;11.376;2023-06-22T04:16:51;19.10;99.90
9448;DHT22;4762;48.128;11.376;2023-06-22T04:19:08;19.20;99.90
9448;DHT22;4762;48.128;11.376;2023-06-22T04:21:26;19.30;99.90
9448;DHT22;4762;48.128;11.376;2023-06-22T04:23:43;19.30;99.90
9448;DHT22;4762;48.128;11.376;2023-06-22T04:26:00;19.30;99.90
9448;DHT22;4762;48.128;11.376;2023-06-22T04:28:17;19.40;99.90
9448;DHT22;4762;48.128;11.376;2023-06-22T04:30:34;19.50;99.90
9448;DHT22;4762;48.128;11.376;2023-06-22T04:32:51;19.50;99.90
9448;DHT22;4762;48.128;11.376;2023-06-22T04:35:13;19.60;99.90
9448;DHT22;4762;48.128;11.376;2023-06-22T04:37:30;19.70;99.90
9448;DHT22;4762;48.128;11.376;2023-06-22T04:39:47;19.80;99.90
9448;DHT22;4762;48.128;11.376;2023-06-22T04:42:05;19.90;99.90
9448;DHT22;4762;48.128;11.376;2023-06-22T04:44:22;19.90;99.90
9448;DHT22;4762;48.128;11.376;2023-06-22T04:46:41;19.90;99.90
9448;DHT22;4762;48.128;11.376;2023-06-22T04:48:58;20.10;99.90
9448;DHT22;4762;48.128;11.376;2023-06-22T04:51:15;20.20;99.90
9448;DHT22;4762;48.128;11.376;2023-06-22T04:53:17;20.30;99.90
9448;DHT22;4762;48.128;11.376;2023-06-22T04:55:34;20.50;99.90
9448;DHT22;4762;48.128;11.376;2023-06-22T04:57:36;20.50;99.90
9448;DHT22;4762;48.128;11.376;2023-06-22T04:59:39;20.70;99.90
9448;DHT22;4762;48.128;11.376;2023-06-22T05:01:41;20.80;99.90
9448;DHT22;4762;48.128;11.376;2023-06-22T05:03:43;20.70;99.90
9448;DHT22;4762;48.128;11.376;2023-06-22T05:05:45;20.90;99.90
9448;DHT22;4762;48.128;11.376;2023-06-22T05:07:50;21.00;99.90
9448;DHT22;4762;48.128;11.376;2023-06-22T05:09:53;21.10;99.90
9448;DHT22;4762;48.128;11.376;2023-06-22T05:11:55;21.20;99.90
9448;DHT22;4762;48.128;11.376;2023-06-22T05:13:58;21.30;99.90
9448;DHT22;4762;48.128;11.376;2023-06-22T05:16:00;21.40;99.90
9448;DHT22;4762;48.128;11.376;2023-06-22T05:18:03;21.50;99.90
9448;DHT22;4762;48.128;11.376;2023-06-22T05:20:06;21.40;99.90
9448;DHT22;4762;48.128;11.376;2023-06-22T05:22:08;21.60;99.90
9448;DHT22;4762;48.128;11.376;2023-06-22T05:24:10;21.70;99.90
9448;DHT22;4762;48.128;11.376;2023-06-22T05:26:13;21.90;99.90
9448;DHT22;4762;48.128;11.376;2023-06-22T05:28:15;21.90;99.90
9448;DHT22;4762;48.128;11.376;2023-06-22T05:30:17;22.10;99.90
9448;DHT22;4762;48.128;11.376;2023-06-22T05:32:19;22.00;99.90
9448;DHT22;4762;48.128;11.376;2023-06-22T05:34:22;22.30;99.90
9448;DHT22;4762;48.128;11.376;2023-06-22T05:36:24;22.30;99.90
9448;DHT22;4762;48.128;11.376;2023-06-22T05:38:27;22.60;99.90
9448;DHT22;4762;48.128;11.376;2023-06-22T05:40:29;22.90;99.90
9448;DHT22;4762;48.128;11.376;2023-06-22T05:42:31;23.50;99.90
9448;DHT22;4762;48.128;11.376;2023-06-22T05:44:33;24.90;93.90
9448;DHT22;4762;48.128;11.376;2023-06-22T05:46:37;25.40;91.60
9448;DHT22;4762;48.128;11.376;2023-06-22T05:48:39;26.30;86.00
9448;DHT22;4762;48.128;11.376;2023-06-22T05:50:41;26.50;79.50
9448;DHT22;4762;48.128;11.376;2023-06-22T05:52:43;27.40;76.60
9448;DHT22;4762;48.128;11.376;2023-06-22T05:54:45;28.00;69.40
9448;DHT22;4762;48.128;11.376;2023-06-22T05:56:48;27.20;68.80
9448;DHT22;4762;48.128;11.376;2023-06-22T05:58:50;25.70;73.50
9448;DHT22;4762;48.128;11.376;2023-06-22T06:00:52;25.90;77.30
9448;DHT22;4762;48.128;11.376;2023-06-22T06:02:54;26.10;73.80
9448;DHT22;4762;48.128;11.376;2023-06-22T06:04:56;26.80;74.70
9448;DHT22;4762;48.128;11.376;2023-06-22T06:06:59;27.60;70.90
9448;DHT22;4762;48.128;11.376;2023-06-22T06:09:01;27.20;71.10
9448;DHT22;4762;48.128;11.376;2023-06-22T06:11:03;27.90;68.10
9448;DHT22;4762;48.128;11.376;2023-06-22T06:13:05;28.70;65.00
9448;DHT22;4762;48.128;11.376;2023-06-22T06:15:08;28.40;62.80
9448;DHT22;4762;48.128;11.376;2023-06-22T06:17:10;28.40;63.40
9448;DHT22;4762;48.128;11.376;2023-06-22T06:19:12;27.60;64.60
9448;DHT22;4762;48.128;11.376;2023-06-22T06:21:14;27.50;66.50
9448;DHT22;4762;48.128;11.376;2023-06-22T06:23:17;27.80;64.40
9448;DHT22;4762;48.128;11.376;2023-06-22T06:25:19;27.80;64.10
9448;DHT22;4762;48.128;11.376;2023-06-22T06:27:21;28.00;62.80
9448;DHT22;4762;48.128;11.376;2023-06-22T06:29:23;27.90;62.70
9448;DHT22;4762;48.128;11.376;2023-06-22T06:31:26;27.70;64.80
9448;DHT22;4762;48.128;11.376;2023-06-22T06:33:30;28.20;62.80
9448;DHT22;4762;48.128;11.376;2023-06-22T06:35:32;28.70;61.50
9448;DHT22;4762;48.128;11.376;2023-06-22T06:37:36;28.40;62.90
9448;DHT22;4762;48.128;11.376;2023-06-22T06:39:38;28.50;61.40
9448;DHT22;4762;48.128;11.376;2023-06-22T06:41:40;28.30;61.70
9448;DHT22;4762;48.128;11.376;2023-06-22T06:43:42;28.50;59.60
9448;DHT22;4762;48.128;11.376;2023-06-22T06:45:44;28.40;61.00
9448;DHT22;4762;48.128;11.376;2023-06-22T06:47:47;28.50;59.90
9448;DHT22;4762;48.128;11.376;2023-06-22T06:49:49;28.50;62.60
9448;DHT22;4762;48.128;11.376;2023-06-22T06:51:51;29.50;59.90
9448;DHT22;4762;48.128;11.376;2023-06-22T06:53:53;29.20;58.50
9448;DHT22;4762;48.128;11.376;2023-06-22T06:55:56;29.30;56.90
9448;DHT22;4762;48.128;11.376;2023-06-22T06:57:58;29.00;59.10
9448;DHT22;4762;48.128;11.376;2023-06-22T07:00:00;29.50;57.10
9448;DHT22;4762;48.128;11.376;2023-06-22T07:02:02;29.80;56.80
9448;DHT22;4762;48.128;11.376;2023-06-22T07:04:05;29.90;56.40
9448;DHT22;4762;48.128;11.376;2023-06-22T07:06:08;30.10;54.80
9448;DHT22;4762;48.128;11.376;2023-06-22T07:08:09;30.40;53.80
9448;DHT22;4762;48.128;11.376;2023-06-22T07:10:11;30.50;52.80
9448;DHT22;4762;48.128;11.376;2023-06-22T07:12:14;30.60;53.80
9448;DHT22;4762;48.128;11.376;2023-06-22T07:14:16;31.00;51.50
9448;DHT22;4762;48.128;11.376;2023-06-22T07:16:18;30.60;51.80
9448;DHT22;4762;48.128;11.376;2023-06-22T07:18:20;31.20;51.80
9448;DHT22;4762;48.128;11.376;2023-06-22T07:20:22;30.50;51.00
9448;DHT22;4762;48.128;11.376;2023-06-22T07:22:25;30.20;53.20
9448;DHT22;4762;48.128;11.376;2023-06-22T07:24:27;30.20;53.20
9448;DHT22;4762;48.128;11.376;2023-06-22T07:26:29;31.00;52.50
9448;DHT22;4762;48.128;11.376;2023-06-22T07:28:31;30.90;50.40
9448;DHT22;4762;48.128;11.376;2023-06-22T07:30:34;30.90;51.00
9448;DHT22;4762;48.128;11.376;2023-06-22T07:32:36;30.50;51.80
9448;DHT22;4762;48.128;11.376;2023-06-22T07:34:38;30.90;51.20
9448;DHT22;4762;48.128;11.376;2023-06-22T07:36:40;31.40;50.10
9448;DHT22;4762;48.128;11.376;2023-06-22T07:38:43;31.60;49.80
9448;DHT22;4762;48.128;11.376;2023-06-22T07:40:45;31.70;48.80
9448;DHT22;4762;48.128;11.376;2023-06-22T07:42:47;31.10;48.90
9448;DHT22;4762;48.128;11.376;2023-06-22T07:44:50;31.90;48.10
9448;DHT22;4762;48.128;11.376;2023-06-22T07:46:52;31.60;48.60
9448;DHT22;4762;48.128;11.376;2023-06-22T07:48:54;32.20;47.60
9448;DHT22;4762;48.128;11.376;2023-06-22T07:50:57;32.20;47.50
9448;DHT22;4762;48.128;11.376;2023-06-22T07:52:59;32.00;46.20
9448;DHT22;4762;48.128;11.376;2023-06-22T07:55:01;31.50;48.30
9448;DHT22;4762;48.128;11.376;2023-06-22T07:57:04;32.30;47.40
9448;DHT22;4762;48.128;11.376;2023-06-22T07:59:06;32.80;46.10
9448;DHT22;4762;48.128;11.376;2023-06-22T08:01:08;33.40;45.00
9448;DHT22;4762;48.128;11.376;2023-06-22T08:03:10;33.30;44.70
9448;DHT22;4762;48.128;11.376;2023-06-22T08:05:14;32.40;46.60
9448;DHT22;4762;48.128;11.376;2023-06-22T08:07:15;32.50;44.80
9448;DHT22;4762;48.128;11.376;2023-06-22T08:09:17;32.40;45.40
9448;DHT22;4762;48.128;11.376;2023-06-22T08:11:19;32.50;45.70
9448;DHT22;4762;48.128;11.376;2023-06-22T08:13:21;32.70;45.80
9448;DHT22;4762;48.128;11.376;2023-06-22T08:15:25;33.50;44.00
9448;DHT22;4762;48.128;11.376;2023-06-22T08:17:26;34.50;42.60
9448;DHT22;4762;48.128;11.376;2023-06-22T08:19:28;34.20;43.10
9448;DHT22;4762;48.128;11.376;2023-06-22T08:21:30;34.80;41.30
9448;DHT22;4762;48.128;11.376;2023-06-22T08:23:38;34.30;41.20
9448;DHT22;4762;48.128;11.376;2023-06-22T08:25:41;34.50;41.80
9448;DHT22;4762;48.128;11.376;2023-06-22T08:27:45;34.40;41.80
9448;DHT22;4762;48.128;11.376;2023-06-22T08:29:47;34.20;41.20
9448;DHT22;4762;48.128;11.376;2023-06-22T08:31:49;33.60;41.70
9448;DHT22;4762;48.128;11.376;2023-06-22T08:33:51;32.70;42.60
9448;DHT22;4762;48.128;11.376;2023-06-22T08:35:55;32.80;43.60
9448;DHT22;4762;48.128;11.376;2023-06-22T08:37:57;31.90;44.00
9448;DHT22;4762;48.128;11.376;2023-06-22T08:39:59;32.70;44.20
9448;DHT22;4762;48.128;11.376;2023-06-22T08:42:02;32.00;44.10
9448;DHT22;4762;48.128;11.376;2023-06-22T08:44:04;32.80;43.70
9448;DHT22;4762;48.128;11.376;2023-06-22T08:46:06;33.50;41.60
9448;DHT22;4762;48.128;11.376;2023-06-22T08:48:09;33.50;41.00
9448;DHT22;4762;48.128;11.376;2023-06-22T08:50:14;34.00;41.40
9448;DHT22;4762;48.128;11.376;2023-06-22T08:52:17;34.10;39.70
9448;DHT22;4762;48.128;11.376;2023-06-22T08:54:19;33.40;40.70
9448;DHT22;4762;48.128;11.376;2023-06-22T08:56:21;33.80;40.20
9448;DHT22;4762;48.128;11.376;2023-06-22T08:58:24;34.60;40.70
9448;DHT22;4762;48.128;11.376;2023-06-22T09:00:27;34.20;40.50
9448;DHT22;4762;48.128;11.376;2023-06-22T09:02:29;34.50;39.00
9448;DHT22;4762;48.128;11.376;2023-06-22T09:04:31;34.90;39.90
9448;DHT22;4762;48.128;11.376;2023-06-22T09:06:33;34.80;40.50
9448;DHT22;4762;48.128;11.376;2023-06-22T09:08:36;35.60;39.30
9448;DHT22;4762;48.128;11.376;2023-06-22T09:10:43;35.80;38.30
9448;DHT22;4762;48.128;11.376;2023-06-22T09:12:48;34.60;39.50
9448;DHT22;4762;48.128;11.376;2023-06-22T09:14:50;34.20;40.40
9448;DHT22;4762;48.128;11.376;2023-06-22T09:16:52;33.60;41.70
9448;DHT22;4762;48.128;11.376;2023-06-22T09:18:55;34.40;40.90
9448;DHT22;4762;48.128;11.376;2023-06-22T09:20:57;34.40;39.30
9448;DHT22;4762;48.128;11.376;2023-06-22T09:22:59;35.20;39.60
9448;DHT22;4762;48.128;11.376;2023-06-22T09:25:01;34.90;38.90
9448;DHT22;4762;48.128;11.376;2023-06-22T09:27:04;35.60;39.10
9448;DHT22;4762;48.128;11.376;2023-06-22T09:29:06;35.20;38.60
9448;DHT22;4762;48.128;11.376;2023-06-22T09:31:08;35.00;37.80
9448;DHT22;4762;48.128;11.376;2023-06-22T09:33:10;35.60;38.80
9448;DHT22;4762;48.128;11.376;2023-06-22T09:35:13;35.70;37.30
9448;DHT22;4762;48.128;11.376;2023-06-22T09:37:22;35.50;37.40
9448;DHT22;4762;48.128;11.376;2023-06-22T09:39:24;35.40;38.00
9448;DHT22;4762;48.128;11.376;2023-06-22T09:41:26;36.00;36.90
9448;DHT22;4762;48.128;11.376;2023-06-22T09:43:29;36.40;36.40
9448;DHT22;4762;48.128;11.376;2023-06-22T09:45:30;36.90;35.30
9448;DHT22;4762;48.128;11.376;2023-06-22T09:47:33;37.50;34.80
9448;DHT22;4762;48.128;11.376;2023-06-22T09:49:35;36.40;35.90
9448;DHT22;4762;48.128;11.376;2023-06-22T09:51:37;35.90;36.30
9448;DHT22;4762;48.128;11.376;2023-06-22T09:53:39;36.90;35.20
9448;DHT22;4762;48.128;11.376;2023-06-22T09:55:42;36.00;35.40
9448;DHT22;4762;48.128;11.376;2023-06-22T09:57:44;36.50;34.50
9448;DHT22;4762;48.128;11.376;2023-06-22T09:59:47;37.20;34.40
9448;DHT22;4762;48.128;11.376;2023-06-22T10:01:50;37.30;34.30
9448;DHT22;4762;48.128;11.376;2023-06-22T10:03:52;36.70;33.90
9448;DHT22;4762;48.128;11.376;2023-06-22T10:05:55;36.50;34.50
9448;DHT22;4762;48.128;11.376;2023-06-22T10:07:57;36.00;34.90
9448;DHT22;4762;48.128;11.376;2023-06-22T10:10:00;36.60;34.50
9448;DHT22;4762;48.128;11.376;2023-06-22T10:12:04;37.60;33.90
9448;DHT22;4762;48.128;11.376;2023-06-22T10:14:06;38.40;32.20
9448;DHT22;4762;48.128;11.376;2023-06-22T10:16:08;38.10;32.30
9448;DHT22;4762;48.128;11.376;2023-06-22T10:18:10;38.20;33.30
9448;DHT22;4762;48.128;11.376;2023-06-22T10:20:13;37.60;32.00
9448;DHT22;4762;48.128;11.376;2023-06-22T10:22:15;36.90;33.50
9448;DHT22;4762;48.128;11.376;2023-06-22T10:24:17;37.10;33.50
9448;DHT22;4762;48.128;11.376;2023-06-22T10:26:19;37.70;32.50
9448;DHT22;4762;48.128;11.376;2023-06-22T10:28:22;38.40;32.20
9448;DHT22;4762;48.128;11.376;2023-06-22T10:30:24;38.20;31.20
9448;DHT22;4762;48.128;11.376;2023-06-22T10:32:27;37.80;32.60
9448;DHT22;4762;48.128;11.376;2023-06-22T10:34:29;37.50;33.00
9448;DHT22;4762;48.128;11.376;2023-06-22T10:36:32;37.50;33.60
9448;DHT22;4762;48.128;11.376;2023-06-22T10:38:34;38.20;32.40
9448;DHT22;4762;48.128;11.376;2023-06-22T10:40:36;37.50;30.80
9448;DHT22;4762;48.128;11.376;2023-06-22T10:42:38;38.30;32.00
9448;DHT22;4762;48.128;11.376;2023-06-22T10:44:41;39.00;30.90
9448;DHT22;4762;48.128;11.376;2023-06-22T10:46:44;39.20;30.50
9448;DHT22;4762;48.128;11.376;2023-06-22T10:48:46;38.50;31.20
9448;DHT22;4762;48.128;11.376;2023-06-22T10:50:49;38.90;30.10
9448;DHT22;4762;48.128;11.376;2023-06-22T10:52:51;38.50;30.30
9448;DHT22;4762;48.128;11.376;2023-06-22T10:54:53;36.40;33.00
9448;DHT22;4762;48.128;11.376;2023-06-22T10:57:01;36.20;33.80
9448;DHT22;4762;48.128;11.376;2023-06-22T10:59:03;36.70;33.30
9448;DHT22;4762;48.128;11.376;2023-06-22T11:01:05;36.40;33.60
9448;DHT22;4762;48.128;11.376;2023-06-22T11:03:07;36.60;33.40
9448;DHT22;4762;48.128;11.376;2023-06-22T11:05:09;36.90;33.20
9448;DHT22;4762;48.128;11.376;2023-06-22T11:07:12;36.70;33.00
9448;DHT22;4762;48.128;11.376;2023-06-22T11:09:15;37.20;33.20
9448;DHT22;4762;48.128;11.376;2023-06-22T11:11:17;38.00;32.20
9448;DHT22;4762;48.128;11.376;2023-06-22T11:13:20;38.30;31.90
9448;DHT22;4762;48.128;11.376;2023-06-22T11:15:22;38.20;31.90
9448;DHT22;4762;48.128;11.376;2023-06-22T11:17:24;37.60;32.90
9448;DHT22;4762;48.128;11.376;2023-06-22T11:19:26;37.60;34.50
9448;DHT22;4762;48.128;11.376;2023-06-22T11:21:29;37.80;32.40
9448;DHT22;4762;48.128;11.376;2023-06-22T11:23:31;38.60;31.60
9448;DHT22;4762;48.128;11.376;2023-06-22T11:25:34;38.30;31.80
9448;DHT22;4762;48.128;11.376;2023-06-22T11:27:39;38.60;31.30
9448;DHT22;4762;48.128;11.376;2023-06-22T11:29:41;38.50;30.70
9448;DHT22;4762;48.128;11.376;2023-06-22T11:31:43;38.70;32.00
9448;DHT22;4762;48.128;11.376;2023-06-22T11:33:45;38.80;30.90
9448;DHT22;4762;48.128;11.376;2023-06-22T11:35:47;38.40;31.90
9448;DHT22;4762;48.128;11.376;2023-06-22T11:37:50;38.30;31.70
9448;DHT22;4762;48.128;11.376;2023-06-22T11:39:52;38.80;32.00
9448;DHT22;4762;48.128;11.376;2023-06-22T11:41:54;39.60;31.20
9448;DHT22;4762;48.128;11.376;2023-06-22T11:43:56;40.00;30.20
9448;DHT22;4762;48.128;11.376;2023-06-22T11:45:59;40.10;30.40
9448;DHT22;4762;48.128;11.376;2023-06-22T11:48:01;40.40;29.90
9448;DHT22;4762;48.128;11.376;2023-06-22T11:50:03;40.10;29.30
9448;DHT22;4762;48.128;11.376;2023-06-22T11:52:06;40.40;29.90
9448;DHT22;4762;48.128;11.376;2023-06-22T11:54:08;39.80;30.20
9448;DHT22;4762;48.128;11.376;2023-06-22T11:56:10;39.30;30.30
9448;DHT22;4762;48.128;11.376;2023-06-22T11:58:13;40.30;29.60
9448;DHT22;4762;48.128;11.376;2023-06-22T12:00:15;39.70;29.90
9448;DHT22;4762;48.128;11.376;2023-06-22T12:02:18;39.30;30.80
9448;DHT22;4762;48.128;11.376;2023-06-22T12:04:20;39.10;30.40
9448;DHT22;4762;48.128;11.376;2023-06-22T12:06:22;39.30;31.00
9448;DHT22;4762;48.128;11.376;2023-06-22T12:08:24;39.50;30.20
9448;DHT22;4762;48.128;11.376;2023-06-22T12:10:27;39.50;30.50
9448;DHT22;4762;48.128;11.376;2023-06-22T12:12:30;39.80;30.10
9448;DHT22;4762;48.128;11.376;2023-06-22T12:14:34;39.00;30.00
9448;DHT22;4762;48.128;11.376;2023-06-22T12:16:37;38.10;31.90
9448;DHT22;4762;48.128;11.376;2023-06-22T12:18:40;37.70;33.20
9448;DHT22;4762;48.128;11.376;2023-06-22T12:20:42;38.30;32.80
9448;DHT22;4762;48.128;11.376;2023-06-22T12:22:44;38.70;31.60
9448;DHT22;4762;48.128;11.376;2023-06-22T12:24:46;38.00;32.20
9448;DHT22;4762;48.128;11.376;2023-06-22T12:26:49;39.00;31.90
9448;DHT22;4762;48.128;11.376;2023-06-22T12:28:51;38.60;32.00
9448;DHT22;4762;48.128;11.376;2023-06-22T12:30:53;39.00;31.70
9448;DHT22;4762;48.128;11.376;2023-06-22T12:32:55;38.60;32.30
9448;DHT22;4762;48.128;11.376;2023-06-22T12:34:58;39.20;30.80
9448;DHT22;4762;48.128;11.376;2023-06-22T12:37:00;38.80;31.20
9448;DHT22;4762;48.128;11.376;2023-06-22T12:39:03;37.20;32.10
9448;DHT22;4762;48.128;11.376;2023-06-22T12:41:05;37.10;33.70
9448;DHT22;4762;48.128;11.376;2023-06-22T12:43:07;38.10;32.60
9448;DHT22;4762;48.128;11.376;2023-06-22T12:45:10;37.80;31.90
9448;DHT22;4762;48.128;11.376;2023-06-22T12:47:12;36.70;33.40
9448;DHT22;4762;48.128;11.376;2023-06-22T12:49:15;36.80;34.50
9448;DHT22;4762;48.128;11.376;2023-06-22T12:51:21;36.00;34.80
9448;DHT22;4762;48.128;11.376;2023-06-22T12:53:23;36.60;34.20
9448;DHT22;4762;48.128;11.376;2023-06-22T12:55:25;36.60;34.10
9448;DHT22;4762;48.128;11.376;2023-06-22T12:57:27;36.80;33.80
9448;DHT22;4762;48.128;11.376;2023-06-22T12:59:29;36.20;33.80
9448;DHT22;4762;48.128;11.376;2023-06-22T13:01:32;36.40;33.90
9448;DHT22;4762;48.128;11.376;2023-06-22T13:03:34;36.70;34.20
9448;DHT22;4762;48.128;11.376;2023-06-22T13:05:36;36.70;34.10
9448;DHT22;4762;48.128;11.376;2023-06-22T13:07:38;37.40;33.40
9448;DHT22;4762;48.128;11.376;2023-06-22T13:09:41;38.10;31.80
9448;DHT22;4762;48.128;11.376;2023-06-22T13:11:43;39.10;30.60
9448;DHT22;4762;48.128;11.376;2023-06-22T13:13:45;38.80;31.00
9448;DHT22;4762;48.128;11.376;2023-06-22T13:15:47;38.90;31.40
9448;DHT22;4762;48.128;11.376;2023-06-22T13:17:49;39.10;31.20
9448;DHT22;4762;48.128;11.376;2023-06-22T13:19:52;38.70;31.60
9448;DHT22;4762;48.128;11.376;2023-06-22T13:21:54;37.30;32.50
9448;DHT22;4762;48.128;11.376;2023-06-22T13:23:57;37.90;33.70
9448;DHT22;4762;48.128;11.376;2023-06-22T13:25:59;38.60;32.90
9448;DHT22;4762;48.128;11.376;2023-06-22T13:28:01;38.00;33.20
9448;DHT22;4762;48.128;11.376;2023-06-22T13:30:04;38.00;33.80
9448;DHT22;4762;48.128;11.376;2023-06-22T13:32:06;37.70;33.90
9448;DHT22;4762;48.128;11.376;2023-06-22T13:34:09;38.80;33.20
9448;DHT22;4762;48.128;11.376;2023-06-22T13:36:12;38.30;32.80
9448;DHT22;4762;48.128;11.376;2023-06-22T13:38:14;38.10;33.00
9448;DHT22;4762;48.128;11.376;2023-06-22T13:40:16;37.50;33.50
9448;DHT22;4762;48.128;11.376;2023-06-22T13:42:19;37.80;33.70